Terminal Aerodrome Forecast
Issued by NWS

Home | Current Version | Previous Version | Text Only | Print | Product List | Glossary On
Versions: 1 2 3 4 5 6 7 8 9 10 11 12 13 14 15 16 17 18 19 20 21 22 23 24 25 26 27 28 29 30 31 32 33 34 35 36 37 38
000
FTUS43 KGRB 310500
TAFRHI
TAF
KRHI 310536Z 3106/0106 00000KT P6SM SCT015
      TEMPO 3106/3108 2SM BR SCT004 BKN015
     FM310800 VRB03KT 4SM BR SCT002 OVC010
      TEMPO 3108/3112 1/4SM FG VV002
     FM311300 14003KT 3SM BR BKN006
     FM311600 15007KT P6SM SCT020
     FM010100 17005KT P6SM SCT030 BKN100=

USA.gov is the U.S. government's official web portal to all federal, state and local government web resources and services.